Time;durP1;ratioP1;P1;durP2;ratioP2;P2;SDS_P1;SDS_P2;PMS_P1;PMS_P2;Temp;Humidity;BMP_temperature;BMP_pressure;BME280_temperature;BME280_humidity;BME280_pressure;Samples;Min_cycle;Max_cycle;Signal;HPM_P1;HPM_P2
2022/05/01 00:01:15;;;;;;;3.40;3.10;;;12.10;90.00;;;12.30;60.04;95336.13;5053856;28;20569;-56
2022/05/01 00:03:43;;;;;;;3.23;3.03;;;12.20;90.10;;;12.31;59.82;95337.81;5060163;28;20458;-56
2022/05/01 00:06:12;;;;;;;5.50;4.33;;;12.20;90.00;;;12.32;59.73;95334.22;5050451;28;20476;-56
2022/05/01 00:08:41;;;;;;;16.40;4.33;;;12.20;90.00;;;12.31;59.80;95333.34;5062367;28;20466;-56
2022/05/01 00:11:08;;;;;;;4.90;3.80;;;12.20;90.00;;;12.31;59.75;95332.53;5044682;28;20897;-57
2022/05/01 00:13:35;;;;;;;5.00;4.60;;;12.20;89.70;;;12.29;59.71;95329.22;5053073;28;20945;-56
2022/05/01 00:16:03;;;;;;;5.30;4.80;;;12.20;90.00;;;12.26;59.49;95329.50;5049620;28;20472;-57
2022/05/01 00:18:30;;;;;;;5.53;4.30;;;12.20;89.50;;;12.24;59.67;95326.13;5046040;28;20513;-56
2022/05/01 00:20:57;;;;;;;5.13;4.63;;;12.10;89.50;;;12.18;59.83;95315.19;5054083;28;20484;-57
2022/05/01 00:23:26;;;;;;;5.87;3.90;;;12.10;90.00;;;12.15;59.77;95317.28;5054514;28;20668;-57
2022/05/01 00:25:53;;;;;;;6.37;4.00;;;12.00;90.00;;;12.10;59.87;95311.56;5060725;28;21042;-56
2022/05/01 00:28:21;;;;;;;4.03;3.73;;;12.00;90.00;;;12.06;60.09;95307.56;5055653;28;21045;-56
2022/05/01 00:30:48;;;;;;;5.27;4.77;;;12.00;90.00;;;12.01;60.36;95306.16;5048757;28;20479;-57
2022/05/01 00:36:27;;;;;;;4.93;4.33;;;11.90;90.40;;;11.95;60.77;95317.25;4967328;28;20486;-56
2022/05/01 00:38:56;;;;;;;5.00;4.50;;;11.80;90.60;;;11.89;60.71;95304.59;5042663;28;20458;-58
2022/05/01 00:41:24;;;;;;;5.37;4.97;;;11.80;90.80;;;11.88;60.86;95291.53;5048341;28;20477;-57
2022/05/01 00:44:03;;;;;;;8.17;5.37;;;11.80;90.90;;;11.87;60.98;95308.31;5047994;28;20639;-57
2022/05/01 00:46:32;;;;;;;5.93;5.33;;;11.80;90.80;;;11.83;61.37;95300.72;5050435;28;20488;-57
2022/05/01 00:49:01;;;;;;;6.30;5.80;;;11.70;91.20;;;11.80;61.33;95303.63;5052721;28;20517;-56
2022/05/01 00:51:30;;;;;;;5.90;5.40;;;11.80;91.20;;;11.75;61.95;95297.91;5042208;28;20475;-56
2022/05/01 00:53:59;;;;;;;16.90;5.67;;;11.70;91.60;;;11.71;61.36;95300.94;5048544;28;20486;-57
2022/05/01 00:56:26;;;;;;;7.20;5.63;;;11.60;91.20;;;11.66;62.13;95296.94;5045376;28;20476;-56
2022/05/01 00:58:53;;;;;;;5.30;4.90;;;11.60;91.80;;;11.65;62.05;95299.72;5048995;28;20459;-57
2022/05/01 01:01:21;;;;;;;6.93;5.80;;;11.60;91.80;;;11.61;62.67;95303.56;5052675;28;20474;-55
2022/05/01 01:03:48;;;;;;;5.73;5.33;;;11.50;92.10;;;11.55;62.84;95298.84;5055796;28;20558;-56
2022/05/01 01:06:16;;;;;;;5.60;5.17;;;11.50;92.50;;;11.48;62.41;95299.38;5048011;28;20904;-56
2022/05/01 01:08:43;;;;;;;7.47;5.03;;;11.40;91.90;;;11.42;63.19;95301.72;5052300;28;21039;-55
2022/05/01 01:11:13;;;;;;;7.13;5.60;;;11.40;92.50;;;11.39;63.46;95291.47;5055084;28;20948;-58
2022/05/01 01:13:41;;;;;;;7.60;5.23;;;11.40;92.80;;;11.36;63.22;95297.00;5052840;28;20661;-56
2022/05/01 01:16:10;;;;;;;5.67;5.17;;;11.30;92.90;;;11.33;63.38;95300.72;5050379;28;20483;-56
2022/05/01 01:18:39;;;;;;;7.20;5.47;;;11.30;92.80;;;11.29;63.66;95294.06;5045740;28;21067;-56
2022/05/01 01:21:09;;;;;;;9.60;6.30;;;11.20;93.00;;;11.26;63.78;95294.31;5052094;28;20486;-55
2022/05/01 01:23:37;;;;;;;7.07;6.40;;;11.20;93.20;;;11.23;64.68;95290.16;5047672;28;21021;-56
2022/05/01 01:26:05;;;;;;;7.03;6.33;;;11.20;93.90;;;11.21;63.94;95293.88;5048929;28;20557;-56
2022/05/01 01:28:34;;;;;;;9.53;6.80;;;11.20;93.50;;;11.18;65.35;95292.34;5051828;28;20478;-55
2022/05/01 01:33:49;;;;;;;8.40;7.60;;;11.10;93.70;;;11.14;65.28;95285.69;5057349;28;20532;-57
2022/05/01 01:36:18;;;;;;;8.70;7.80;;;11.10;94.40;;;11.11;65.72;95286.78;5048019;28;20552;-57
2022/05/01 01:38:45;;;;;;;14.27;10.13;;;11.10;94.70;;;11.10;66.02;95295.66;5054929;28;20466;-56
2022/05/01 01:41:13;;;;;;;8.50;7.60;;;11.10;94.80;;;11.07;65.17;95290.66;5053835;28;20559;-56
2022/05/01 01:43:40;;;;;;;15.07;8.80;;;11.00;94.20;;;11.05;65.61;95292.59;5043259;28;20460;-55
2022/05/01 01:46:07;;;;;;;9.23;8.20;;;11.00;94.80;;;11.05;65.91;95287.31;5048041;28;20490;-57
2022/05/01 01:48:34;;;;;;;9.17;8.30;;;11.00;95.00;;;11.07;66.11;95295.91;5049053;28;21059;-57
2022/05/01 01:51:03;;;;;;;9.07;8.17;;;11.00;95.00;;;11.09;65.87;95287.88;5050496;28;20479;-56
2022/05/01 01:53:32;;;;;;;9.40;8.23;;;11.00;95.00;;;11.09;65.75;95291.38;5048220;28;20495;-57
2022/05/01 01:56:00;;;;;;;10.07;9.17;;;11.10;95.40;;;11.07;66.55;95288.00;5056183;28;20478;-55
2022/05/01 01:58:28;;;;;;;14.20;8.97;;;11.00;95.60;;;11.07;66.28;95298.53;5049104;28;20525;-55
2022/05/01 02:00:55;;;;;;;9.50;8.53;;;11.00;95.50;;;11.05;66.18;95295.22;5053143;28;20532;-56
2022/05/01 02:03:23;;;;;;;12.40;9.10;;;11.00;95.10;;;11.04;66.53;95288.28;5048851;28;20452;-55
2022/05/01 02:05:50;;;;;;;14.17;9.03;;;11.00;95.40;;;11.02;66.39;95284.94;5044628;28;20482;-55
2022/05/01 02:08:18;;;;;;;11.33;9.90;;;11.00;95.60;;;11.01;66.16;95283.28;5054016;28;20527;-57
2022/05/01 02:10:47;;;;;;;15.00;11.77;;;11.00;95.50;;;11.01;66.86;95285.09;5054911;28;20947;-57
2022/05/01 02:13:14;;;;;;;11.63;10.10;;;11.00;95.90;;;11.01;66.97;95280.66;5057115;28;20494;-56
2022/05/01 02:15:42;;;;;;;12.97;10.50;;;11.00;96.10;;;11.02;66.78;95274.44;5058899;28;20471;-57
2022/05/01 02:18:09;;;;;;;13.37;11.30;;;11.00;96.00;;;11.00;67.55;95273.72;5060530;28;20479;-56
2022/05/01 02:23:17;;;;;;;13.50;10.20;;;10.90;96.40;;;10.99;66.89;95276.50;5061264;28;20522;-55
2022/05/01 02:25:46;;;;;;;14.77;10.20;;;10.90;96.10;;;10.99;67.02;95277.31;5058748;28;20483;-57
2022/05/01 02:28:13;;;;;;;13.90;10.30;;;10.90;96.10;;;10.98;67.20;95280.91;5054249;28;21025;-56
2022/05/01 02:30:40;;;;;;;12.10;10.30;;;10.90;96.30;;;10.97;67.45;95278.41;5055892;28;20506;-56
2022/05/01 02:33:08;;;;;;;15.70;10.80;;;10.90;96.60;;;10.99;67.92;95276.50;5047170;28;20547;-56
2022/05/01 02:35:36;;;;;;;12.40;11.10;;;10.90;96.70;;;10.99;67.53;95282.59;5051581;28;20487;-56
2022/05/01 02:38:03;;;;;;;12.53;11.20;;;10.90;96.60;;;10.98;67.21;95275.66;5061271;28;20459;-55
2022/05/01 02:40:30;;;;;;;15.20;11.10;;;10.90;96.50;;;10.98;67.22;95283.53;5056001;28;20532;-54
2022/05/01 02:42:59;;;;;;;16.43;9.33;;;10.90;96.40;;;10.95;67.32;95268.00;5056716;28;20952;-56
2022/05/01 02:45:26;;;;;;;12.73;9.90;;;10.90;96.40;;;10.92;67.60;95271.75;5046656;28;20614;-57
2022/05/01 02:47:54;;;;;;;10.10;9.10;;;10.90;96.70;;;10.92;67.42;95266.50;5053333;28;20463;-56
2022/05/01 02:50:21;;;;;;;12.00;8.90;;;10.90;96.60;;;10.91;67.85;95274.53;5051947;28;20505;-56
2022/05/01 02:52:51;;;;;;;9.57;8.57;;;10.90;96.70;;;10.87;67.74;95270.47;5053261;28;20514;-56
2022/05/01 02:55:19;;;;;;;12.23;10.53;;;10.80;96.60;;;10.84;68.44;95262.84;5057465;28;20948;-57
2022/05/01 02:57:46;;;;;;;10.00;8.80;;;10.80;97.40;;;10.80;68.06;95271.97;5054457;28;20650;-56
2022/05/01 03:00:17;;;;;;;11.70;9.77;;;10.80;96.90;;;10.78;68.29;95274.72;5052985;28;20537;-57
2022/05/01 03:02:46;;;;;;;11.90;8.90;;;10.80;97.20;;;10.78;68.12;95282.63;5046150;28;21013;-55
2022/05/01 03:05:13;;;;;;;19.50;10.40;;;10.70;97.10;;;10.77;68.59;95287.06;5046966;28;21091;-55
2022/05/01 03:07:41;;;;;;;15.20;10.20;;;10.70;97.50;;;10.76;68.30;95282.75;5050677;28;20895;-54
2022/05/01 03:10:10;;;;;;;12.87;9.60;;;10.70;97.40;;;10.75;68.87;95282.88;5056106;28;20938;-55
2022/05/01 03:12:37;;;;;;;12.53;9.33;;;10.70;97.60;;;10.74;68.79;95283.84;5056047;28;20463;-56
2022/05/01 03:15:06;;;;;;;14.57;10.30;;;10.70;97.50;;;10.74;69.22;95284.69;5061125;28;20585;-56
2022/05/01 03:23:01;;;;;;;16.60;10.60;;;10.70;97.80;;;10.79;68.99;95286.09;5048474;28;20485;-56
2022/05/01 03:25:28;;;;;;;12.20;10.30;;;10.70;97.80;;;10.80;68.92;95293.00;5051041;28;20493;-56
2022/05/01 03:27:56;;;;;;;11.33;10.20;;;10.70;97.80;;;10.83;68.59;95290.13;5045640;28;20468;-55
2022/05/01 03:30:23;;;;;;;12.33;9.73;;;10.70;97.60;;;10.87;68.53;95294.16;5048350;28;20475;-55
2022/05/01 03:32:52;;;;;;;13.87;10.17;;;10.80;97.50;;;10.91;68.37;95300.84;5052060;28;20466;-56
2022/05/01 03:35:20;;;;;;;19.93;10.80;;;10.80;97.50;;;10.94;68.60;95306.66;5058832;28;20495;-56
2022/05/01 03:37:47;;;;;;;21.97;12.00;;;10.90;97.70;;;10.97;68.45;95304.72;5054858;28;20463;-56
2022/05/01 03:40:15;;;;;;;17.27;11.90;;;10.90;97.60;;;10.99;68.15;95311.53;5054619;28;20487;-56
2022/05/01 03:42:43;;;;;;;16.03;11.33;;;10.90;97.60;;;11.04;68.04;95317.22;5057485;28;20458;-57
2022/05/01 03:45:11;;;;;;;14.90;11.50;;;10.90;97.50;;;11.07;67.91;95322.22;5047589;28;20480;-56
2022/05/01 03:47:38;;;;;;;10.97;9.50;;;11.00;97.40;;;11.09;67.69;95328.22;5057395;28;20991;-57
2022/05/01 03:50:07;;;;;;;12.87;9.00;;;11.00;97.10;;;11.11;67.20;95330.72;5058746;28;20530;-56
2022/05/01 03:52:35;;;;;;;12.07;8.53;;;11.00;96.70;;;11.11;66.65;95333.34;5047432;28;20456;-56
2022/05/01 03:55:02;;;;;;;9.43;8.17;;;11.00;96.40;;;11.10;66.21;95326.41;5068567;28;20487;-57
2022/05/01 03:57:30;;;;;;;12.23;8.63;;;11.00;96.20;;;11.08;66.25;95331.81;5052128;28;20463;-55
2022/05/01 03:59:57;;;;;;;14.00;9.13;;;11.00;95.80;;;11.07;66.00;95326.66;5041176;28;20473;-57
2022/05/01 04:02:24;;;;;;;14.60;8.70;;;11.00;95.60;;;11.04;65.41;95322.50;5047881;28;20467;-56
2022/05/01 04:04:53;;;;;;;11.07;8.90;;;11.00;95.30;;;11.00;65.41;95326.38;5052580;28;20965;-57
2022/05/01 04:07:22;;;;;;;10.07;8.97;;;10.90;95.10;;;10.98;65.36;95324.81;5055965;28;20467;-56
2022/05/01 04:09:49;;;;;;;9.47;8.47;;;10.90;95.10;;;10.97;65.38;95331.91;5045769;28;20455;-56
2022/05/01 04:12:17;;;;;;;10.90;8.80;;;10.90;95.00;;;10.97;65.42;95337.16;5048900;28;20978;-57
2022/05/01 04:14:44;;;;;;;12.17;9.67;;;10.90;94.90;;;10.97;65.44;95334.53;5053693;28;20486;-56
2022/05/01 04:17:11;;;;;;;16.70;10.30;;;10.90;94.90;;;10.99;65.38;95337.03;5048308;28;20463;-56
2022/05/01 04:19:39;;;;;;;17.67;9.80;;;10.90;95.10;;;11.01;65.11;95343.00;5049885;28;20459;-57
2022/05/01 04:22:06;;;;;;;10.97;8.20;;;10.90;95.00;;;11.03;65.32;95336.66;5054236;28;20473;-56
2022/05/01 04:24:35;;;;;;;16.13;8.90;;;10.90;95.00;;;11.06;65.13;95344.28;5060274;28;20459;-56
2022/05/01 04:27:04;;;;;;;18.00;9.97;;;11.00;95.00;;;11.11;65.14;95342.06;5047922;28;20525;-56
2022/05/01 04:29:37;;;;;;;15.13;9.90;;;11.00;95.00;;;11.16;65.10;95336.41;5056550;28;20458;-56
2022/05/01 04:32:05;;;;;;;14.70;9.00;;;11.10;95.00;;;11.20;65.11;95348.34;5050907;28;20461;-57
2022/05/01 04:34:32;;;;;;;11.40;9.20;;;11.10;95.00;;;11.26;65.02;95346.97;5049926;28;20588;-56
2022/05/01 04:37:00;;;;;;;14.03;10.10;;;11.20;95.10;;;11.33;65.13;95350.75;5044605;28;20565;-55
2022/05/01 04:39:27;;;;;;;11.10;9.77;;;11.20;95.10;;;11.41;65.15;95344.84;5058236;28;21026;-57
2022/05/01 04:41:55;;;;;;;19.67;10.50;;;11.30;95.10;;;11.50;65.13;95345.84;5048542;28;20500;-56
2022/05/01 04:44:23;;;;;;;13.63;11.00;;;11.40;95.50;;;11.58;64.88;95340.72;5050079;28;21100;-56
2022/05/01 04:46:50;;;;;;;14.73;11.43;;;11.50;95.20;;;11.68;64.95;95335.47;5050559;28;20475;-56
2022/05/01 04:49:18;;;;;;;15.20;11.80;;;11.50;95.20;;;11.77;65.21;95334.66;5045504;28;20543;-57
2022/05/01 04:51:47;;;;;;;14.73;9.80;;;11.70;95.20;;;11.86;64.61;95327.75;5043660;28;20488;-56
2022/05/01 04:54:14;;;;;;;16.80;10.50;;;11.70;95.00;;;11.94;64.30;95335.84;5047343;28;20569;-55
2022/05/01 04:59:28;;;;;;;13.87;9.47;;;11.90;94.60;;;12.12;63.56;95338.66;5049982;28;20468;-55
2022/05/01 05:01:55;;;;;;;11.33;8.97;;;12.00;94.30;;;12.21;63.51;95332.53;5045221;28;20920;-55
2022/05/01 05:04:23;;;;;;;12.70;9.47;;;12.10;94.20;;;12.31;63.63;95333.34;5047561;28;20531;-56
2022/05/01 05:06:52;;;;;;;15.00;11.27;;;12.20;94.20;;;12.44;63.20;95330.47;5045666;28;20471;-57
2022/05/01 05:12:07;;;;;;;12.47;9.50;;;12.40;93.80;;;12.66;62.64;95329.31;5044061;28;20501;-55
2022/05/01 05:14:36;;;;;;;15.43;11.60;;;12.50;93.60;;;12.75;62.63;95335.56;5050393;28;21003;-56
2022/05/01 05:17:06;;;;;;;10.97;9.40;;;12.60;93.50;;;12.83;62.60;95340.13;5041811;28;20456;-56
2022/05/01 05:19:34;;;;;;;16.23;10.67;;;12.70;93.70;;;12.90;62.18;95342.06;5050337;28;20448;-56
2022/05/01 05:22:02;;;;;;;12.93;11.13;;;12.80;93.20;;;13.01;62.03;95341.06;5046237;28;20460;-55
2022/05/01 05:24:33;;;;;;;15.83;10.30;;;12.80;93.10;;;13.10;62.13;95339.34;5045713;28;20451;-57
2022/05/01 05:27:00;;;;;;;13.10;10.47;;;12.90;93.20;;;13.22;62.10;95346.13;5053535;28;20458;-56
2022/05/01 05:29:28;;;;;;;13.77;11.23;;;13.00;93.20;;;13.36;61.97;95341.41;5051890;28;20472;-56
2022/05/01 05:31:56;;;;;;;18.60;10.67;;;13.20;93.10;;;13.51;61.80;95334.66;5051040;28;20483;-55
2022/05/01 05:34:24;;;;;;;13.50;10.70;;;13.30;93.00;;;13.70;61.64;95338.19;5060634;28;20555;-58
2022/05/01 05:36:51;;;;;;;11.77;9.57;;;13.50;93.20;;;13.94;61.47;95341.09;5051069;28;20466;-56
2022/05/01 05:39:18;;;;;;;16.70;10.90;;;13.70;93.10;;;14.18;61.15;95337.03;5046746;28;20451;-56
2022/05/01 05:41:46;;;;;;;11.87;9.10;;;13.90;93.00;;;14.41;60.95;95336.59;5055183;28;20471;-56
2022/05/01 05:44:13;;;;;;;14.10;10.57;;;14.10;92.70;;;14.61;60.51;95337.25;5053619;28;20460;-56
2022/05/01 05:46:40;;;;;;;11.10;9.50;;;14.30;92.40;;;14.77;60.32;95340.03;5042555;28;20488;-55
2022/05/01 05:49:09;;;;;;;10.17;9.07;;;14.50;92.20;;;14.97;59.74;95347.81;5062042;28;20451;-59
2022/05/01 05:51:36;;;;;;;10.37;9.33;;;14.70;91.70;;;15.13;59.17;95341.78;5046613;28;20578;-55
2022/05/01 05:54:04;;;;;;;8.63;7.43;;;14.90;91.40;;;15.25;58.73;95337.88;5049503;28;20960;-56
2022/05/01 05:56:31;;;;;;;9.00;8.10;;;15.00;90.90;;;15.36;58.21;95332.28;5049758;28;20504;-57
2022/05/01 05:58:59;;;;;;;9.50;8.53;;;15.10;90.40;;;15.49;58.21;95334.53;5052969;28;20533;-56
2022/05/01 06:01:26;;;;;;;18.53;9.57;;;15.30;90.70;;;15.70;58.22;95338.59;5060523;28;20478;-57
2022/05/01 06:03:53;;;;;;;8.60;7.77;;;15.40;90.30;;;15.93;57.53;95337.03;5053664;28;20456;-58
2022/05/01 06:06:22;;;;;;;18.13;7.70;;;15.60;89.90;;;16.20;57.08;95343.06;5054759;28;20479;-58
2022/05/01 06:08:49;;;;;;;8.10;7.17;;;15.90;89.60;;;16.49;56.13;95341.78;5046985;28;20495;-58
2022/05/01 06:11:17;;;;;;;7.73;7.10;;;16.10;87.70;;;16.62;55.23;95336.81;5051778;28;20471;-58
2022/05/01 06:13:44;;;;;;;12.10;8.10;;;16.30;86.20;;;16.67;54.80;95341.66;5042890;28;20461;-59
2022/05/01 06:16:11;;;;;;;7.50;6.90;;;16.40;85.00;;;16.70;55.17;95346.63;5051784;28;20494;-59
2022/05/01 06:18:39;;;;;;;7.67;6.97;;;16.50;84.90;;;16.71;54.45;95348.25;5047632;28;20529;-58
2022/05/01 06:21:06;;;;;;;8.67;7.87;;;16.50;84.00;;;16.67;54.52;95344.31;5047030;28;20688;-57
2022/05/01 06:23:35;;;;;;;7.40;6.70;;;16.50;83.10;;;16.57;54.50;95333.81;5052911;28;20450;-58
2022/05/01 06:26:04;;;;;;;8.20;7.33;;;16.40;82.90;;;16.72;54.35;95344.63;5051487;28;20514;-57
2022/05/01 06:28:31;;;;;;;8.57;7.23;;;16.50;83.00;;;16.89;54.05;95339.34;5045193;28;21021;-56
2022/05/01 06:31:00;;;;;;;7.30;6.60;;;16.60;82.60;;;17.10;54.07;95349.44;5041499;28;20483;-56
2022/05/01 06:33:28;;;;;;;15.00;7.23;;;16.80;82.80;;;17.29;53.50;95337.59;5047878;28;20499;-58
2022/05/01 06:35:55;;;;;;;7.63;6.50;;;16.90;82.00;;;17.44;53.16;95346.53;5060953;28;20486;-57
2022/05/01 06:38:23;;;;;;;10.07;6.70;;;17.10;81.10;;;17.64;52.59;95348.81;5052384;28;20452;-56
2022/05/01 06:40:51;;;;;;;7.80;7.00;;;17.20;80.70;;;17.84;52.34;95347.41;5061547;28;20541;-58
2022/05/01 06:43:19;;;;;;;8.00;7.20;;;17.50;80.40;;;18.08;52.24;95337.69;5050747;28;20517;-56
2022/05/01 06:45:47;;;;;;;8.30;6.80;;;17.70;79.40;;;18.26;51.52;95340.91;5044075;28;20837;-58
2022/05/01 06:48:14;;;;;;;8.80;7.90;;;17.90;78.80;;;18.40;49.99;95347.31;5032334;28;20895;-55
2022/05/01 06:50:41;;;;;;;8.17;7.20;;;18.00;76.20;;;18.40;50.86;95330.47;5056034;28;20474;-60
2022/05/01 06:53:08;;;;;;;11.03;7.20;;;18.10;76.40;;;18.49;51.33;95331.25;5050326;28;20455;-57
2022/05/01 06:55:36;;;;;;;20.63;7.10;;;18.20;76.30;;;18.67;50.56;95336.28;5050744;28;20510;-58
2022/05/01 06:58:05;;;;;;;8.17;6.20;;;18.30;76.10;;;18.84;50.27;95342.31;5057726;28;20497;-56
2022/05/01 07:00:32;;;;;;;9.70;6.13;;;18.50;75.40;;;18.99;50.10;95333.38;5052217;28;20478;-55
2022/05/01 07:02:59;;;;;;;9.33;6.30;;;18.70;74.30;;;19.24;49.44;95342.97;5053271;28;20476;-56
2022/05/01 07:05:27;;;;;;;7.60;6.83;;;18.90;73.60;;;19.37;47.99;95332.50;5047385;28;20485;-56
2022/05/01 07:07:54;;;;;;;9.50;6.30;;;19.00;71.10;;;19.42;48.68;95332.78;5051381;28;20462;-57
2022/05/01 07:10:23;;;;;;;6.57;6.03;;;19.10;71.10;;;19.61;47.94;95334.09;5055452;28;20475;-55
2022/05/01 07:12:50;;;;;;;8.63;6.33;;;19.30;70.90;;;19.80;47.56;95335.41;5054626;28;20451;-56
2022/05/01 07:15:19;;;;;;;7.27;5.70;;;19.40;69.40;;;19.97;47.00;95330.69;5048045;28;20509;-57
2022/05/01 07:17:46;;;;;;;6.53;5.93;;;19.60;68.10;;;20.12;46.01;95340.50;5048568;28;20474;-56
2022/05/01 07:20:13;;;;;;;9.20;5.87;;;19.70;66.20;;;20.01;45.56;95344.47;5045464;28;20999;-57
2022/05/01 07:22:41;;;;;;;6.00;5.50;;;19.70;64.20;;;19.90;46.27;95352.97;5059359;28;20484;-58
2022/05/01 07:25:09;;;;;;;9.20;5.57;;;19.70;65.70;;;19.77;45.25;95334.91;5052171;28;20474;-57
2022/05/01 07:27:36;;;;;;;18.47;5.23;;;19.50;63.90;;;19.82;46.68;95333.34;5060491;28;20470;-59
2022/05/01 07:30:05;;;;;;;8.43;6.40;;;19.60;65.50;;;20.01;46.22;95334.59;5056742;28;20499;-58
2022/05/01 07:32:34;;;;;;;8.43;5.70;;;19.70;65.40;;;20.22;45.46;95319.66;5061599;28;20447;-57
2022/05/01 07:35:01;;;;;;;9.33;5.67;;;19.80;64.00;;;20.40;44.70;95330.75;5063526;28;20487;-58
2022/05/01 07:37:29;;;;;;;6.57;5.97;;;20.00;62.40;;;20.42;44.64;95320.69;5056661;28;20451;-57
2022/05/01 07:39:57;;;;;;;7.03;6.33;;;20.10;62.00;;;20.41;44.74;95324.38;5058529;28;20555;-58
2022/05/01 07:42:24;;;;;;;19.13;7.43;;;20.20;61.70;;;20.57;44.86;95319.81;5062280;28;20825;-55
2022/05/01 07:44:52;;;;;;;5.47;5.07;;;20.30;62.20;;;20.87;43.88;95325.06;5059941;28;20447;-59
2022/05/01 07:47:19;;;;;;;9.90;6.00;;;20.50;60.40;;;20.98;44.00;95316.50;5059344;28;20462;-56
2022/05/01 07:49:48;;;;;;;7.03;6.43;;;20.60;59.80;;;21.07;43.95;95327.91;5058130;28;20444;-58
2022/05/01 07:52:16;;;;;;;7.43;5.47;;;20.80;59.70;;;21.17;43.00;95324.88;5052051;28;20447;-57
2022/05/01 07:54:43;;;;;;;5.70;4.97;;;20.90;58.50;;;21.28;42.52;95327.00;5053551;28;20510;-58
2022/05/01 07:57:10;;;;;;;7.60;5.60;;;21.00;57.70;;;21.48;41.87;95325.28;5061022;28;20509;-59
2022/05/01 07:59:38;;;;;;;8.23;4.80;;;21.10;56.60;;;21.64;41.89;95309.94;5060940;28;20832;-59
2022/05/01 08:02:05;;;;;;;7.83;5.20;;;21.30;56.70;;;21.76;41.63;95310.22;5043535;28;20453;-58
2022/05/01 08:04:33;;;;;;;5.93;4.83;;;21.50;56.10;;;21.89;41.19;95315.66;5053546;28;20456;-57
2022/05/01 08:07:04;;;;;;;8.17;5.40;;;21.60;55.20;;;21.92;40.58;95309.06;5055575;28;20974;-58
2022/05/01 08:09:32;;;;;;;4.80;4.50;;;21.60;54.50;;;21.87;40.38;95323.03;5058189;28;20443;-58
2022/05/01 08:11:59;;;;;;;7.60;5.60;;;21.60;54.10;;;21.95;40.35;95328.25;5059803;28;21013;-58
2022/05/01 08:14:27;;;;;;;6.30;5.77;;;21.70;53.60;;;22.13;40.63;95316.97;5059594;28;20992;-58
2022/05/01 08:16:54;;;;;;;5.47;5.07;;;21.80;54.30;;;22.35;40.34;95314.19;5050686;28;20636;-57
2022/05/01 08:22:08;;;;;;;8.90;5.50;;;22.10;53.10;;;22.36;39.64;95315.84;5052739;28;20541;-58
2022/05/01 08:24:35;;;;;;;10.37;5.50;;;22.10;53.00;;;22.19;39.92;95307.31;5056574;28;20447;-57
2022/05/01 08:27:06;;;;;;;7.90;5.70;;;22.00;52.50;;;22.03;39.59;95317.34;5060472;28;20658;-59
2022/05/01 08:29:34;;;;;;;9.33;4.50;;;21.80;52.30;;;21.88;39.95;95315.84;5059448;28;20469;-57
2022/05/01 08:32:01;;;;;;;6.10;5.60;;;21.70;52.40;;;21.72;39.93;95304.47;5059518;28;20456;-59
2022/05/01 08:34:29;;;;;;;9.77;5.07;;;21.60;52.60;;;21.66;40.07;95299.91;5063083;28;20870;-57
2022/05/01 08:36:56;;;;;;;5.70;4.20;;;21.50;52.50;;;21.69;39.83;95298.66;5059921;28;20527;-59
2022/05/01 08:39:25;;;;;;;9.63;4.33;;;21.50;52.40;;;21.75;39.52;95298.72;5057862;28;20450;-58
2022/05/01 08:41:52;;;;;;;9.70;4.27;;;21.50;51.90;;;21.94;38.68;95289.09;5052278;28;20487;-57
2022/05/01 08:44:25;;;;;;;5.07;3.70;;;21.60;51.50;;;22.16;38.61;95289.78;5054702;28;20455;-57
2022/05/01 08:47:01;;;;;;;8.20;4.13;;;21.80;51.20;;;22.43;38.00;95289.03;5056459;28;20484;-57
2022/05/01 08:49:28;;;;;;;6.20;3.67;;;22.00;50.80;;;22.54;37.47;95281.25;5057627;28;20466;-58
2022/05/01 08:51:56;;;;;;;11.03;4.43;;;22.20;50.10;;;22.51;37.45;95287.00;5057435;28;20510;-58
2022/05/01 08:54:25;;;;;;;4.90;3.83;;;22.20;49.50;;;22.43;37.57;95279.13;5061689;28;20507;-60
2022/05/01 08:56:52;;;;;;;5.67;3.53;;;22.20;49.70;;;22.43;37.36;95271.09;5057309;28;20524;-58
2022/05/01 08:59:20;;;;;;;3.73;3.50;;;22.10;49.60;;;22.45;36.96;95277.09;5051324;28;20463;-57
2022/05/01 09:01:48;;;;;;;11.07;3.13;;;22.10;48.40;;;22.45;36.93;95271.75;5057160;28;20475;-57
2022/05/01 09:04:15;;;;;;;3.50;3.23;;;22.20;48.40;;;22.61;36.77;95291.16;5056331;28;20443;-58
2022/05/01 09:06:44;;;;;;;8.60;3.23;;;22.30;48.00;;;22.70;35.83;95273.84;5060108;28;20478;-56
2022/05/01 09:09:12;;;;;;;8.20;3.03;;;22.30;47.10;;;22.72;35.36;95264.53;5058722;28;20550;-56
2022/05/01 09:14:27;;;;;;;3.40;3.10;;;22.50;46.30;;;22.99;35.62;95272.59;5058182;28;20424;-58
2022/05/01 09:17:14;;;;;;;3.57;3.17;;;22.60;46.50;;;22.90;34.67;95280.00;5064338;28;20498;-57
2022/05/01 09:19:42;;;;;;;7.50;2.40;;;22.60;44.80;;;22.80;34.74;95265.38;5053878;28;20440;-56
2022/05/01 09:22:11;;;;;;;6.87;2.50;;;22.60;45.00;;;22.84;33.59;95264.75;5059101;28;20459;-57
2022/05/01 09:24:39;;;;;;;5.33;2.17;;;22.60;44.30;;;22.90;33.33;95258.56;5063869;28;20438;-57
2022/05/01 09:27:24;;;;;;;3.70;2.30;;;22.60;43.80;;;22.83;33.95;95263.09;5057811;28;20459;-56
2022/05/01 09:29:51;;;;;;;2.80;2.60;;;22.60;43.80;;;22.78;33.67;95248.66;5059260;28;20951;-59
2022/05/01 09:32:18;;;;;;;4.50;2.70;;;22.50;43.30;;;22.68;33.24;95243.69;5059852;28;20903;-60
2022/05/01 09:34:46;;;;;;;1.90;1.80;;;22.50;42.80;;;22.67;31.84;95247.44;5054166;28;20892;-57
2022/05/01 09:37:19;;;;;;;2.80;1.70;;;22.40;41.70;;;22.52;32.07;95259.16;5053798;28;21048;-60
2022/05/01 09:39:49;;;;;;;2.40;2.20;;;22.30;41.40;;;22.34;32.29;95235.66;5058623;28;20451;-60
2022/05/01 09:42:21;;;;;;;3.47;2.67;;;22.10;42.00;;;22.33;32.90;95230.50;5060257;28;20546;-57
2022/05/01 09:45:09;;;;;;;7.47;2.20;;;22.10;42.10;;;22.46;32.66;95230.47;5058958;28;20521;-58
2022/05/01 09:47:38;;;;;;;2.37;2.13;;;22.10;42.40;;;22.78;32.93;95227.22;5057504;28;20454;-59
2022/05/01 09:50:07;;;;;;;2.17;1.90;;;22.40;42.80;;;23.10;31.90;95220.19;5059848;28;20476;-60
2022/05/01 09:52:59;;;;;;;7.40;1.70;;;22.60;42.10;;;23.14;30.43;95234.81;5061017;28;20958;-59
2022/05/01 09:55:27;;;;;;;9.43;1.90;;;22.70;40.10;;;22.94;31.83;95220.59;5055191;28;20468;-60
2022/05/01 09:58:09;;;;;;;2.80;2.30;;;22.70;40.70;;;22.79;31.45;95208.22;5061209;28;20454;-60
2022/05/01 10:00:42;;;;;;;5.53;2.40;;;22.60;41.00;;;22.78;31.06;95211.94;5060212;28;20478;-58
2022/05/01 10:03:27;;;;;;;2.23;2.07;;;22.50;40.90;;;22.67;30.45;95209.88;5058938;28;20458;-55
2022/05/01 10:05:56;;;;;;;3.90;2.07;;;22.40;38.70;;;22.53;31.36;95209.88;5059174;28;20478;-59
2022/05/01 10:08:23;;;;;;;10.30;2.77;;;22.30;40.60;;;22.62;32.30;95204.28;5062425;28;20462;-58
2022/05/01 10:10:55;;;;;;;7.00;2.20;;;22.30;41.10;;;22.89;32.13;95202.44;5058910;28;20478;-57
2022/05/01 10:13:24;;;;;;;2.07;1.93;;;22.50;41.40;;;23.24;31.95;95204.88;5057532;28;20447;-57
2022/05/01 10:15:52;;;;;;;3.07;2.03;;;22.80;41.30;;;23.50;30.02;95203.13;5054544;28;20488;-58
2022/05/01 10:18:20;;;;;;;3.53;2.10;;;23.00;40.40;;;23.58;30.49;95195.66;5056426;28;21021;-58
2022/05/01 10:20:47;;;;;;;3.10;2.20;;;23.20;40.00;;;23.58;31.19;95194.84;5054402;28;20490;-59
2022/05/01 10:23:14;;;;;;;2.23;2.03;;;23.20;40.50;;;23.54;30.71;95180.19;5060958;28;20451;-58
2022/05/01 10:25:47;;;;;;;8.83;1.97;;;23.20;39.70;;;23.59;30.74;95180.38;5059509;28;20468;-58
2022/05/01 10:28:44;;;;;;;2.43;2.20;;;23.30;39.60;;;23.74;31.26;95178.22;5062151;28;20516;-57
2022/05/01 10:34:25;;;;;;;2.87;2.30;;;23.60;39.00;;;24.27;29.29;95166.34;5063113;28;20546;-56
2022/05/01 10:37:01;;;;;;;3.87;2.20;;;23.80;39.50;;;24.45;30.32;95175.56;5059861;28;20935;-59
2022/05/01 10:39:34;;;;;;;5.07;2.73;;;24.00;39.10;;;24.41;30.28;95177.84;5065448;28;20954;-58
2022/05/01 10:42:02;;;;;;;2.00;1.90;;;24.00;39.30;;;24.39;29.72;95157.59;5059311;28;20448;-59
2022/05/01 10:44:34;;;;;;;9.93;2.23;;;24.10;38.50;;;24.46;29.91;95152.97;5063626;28;20454;-57
2022/05/01 10:47:06;;;;;;;2.33;2.00;;;24.10;38.10;;;24.52;30.41;95152.94;5063458;28;20635;-60
2022/05/01 10:49:36;;;;;;;6.83;2.50;;;24.10;39.30;;;24.48;29.74;95172.44;5060903;28;20447;-58